createdAt,value
2023-04-16T00:02:03.028Z,-1.95
2023-04-16T00:04:29.898Z,-1.71
2023-04-16T00:06:57.007Z,-1.77
2023-04-16T00:09:24.013Z,-2.06
2023-04-16T00:11:51.724Z,-2.10
2023-04-16T00:14:19.768Z,-1.94
2023-04-16T00:16:46.738Z,-1.94
2023-04-16T00:19:14.852Z,-2.06
2023-04-16T00:21:41.524Z,-1.99
2023-04-16T00:24:08.258Z,-2.25
2023-04-16T00:26:34.859Z,-2.23
2023-04-16T00:29:01.860Z,-2.07
2023-04-16T00:31:33.022Z,-2.02
2023-04-16T00:33:59.937Z,-2.33
2023-04-16T00:36:27.979Z,-2.19
2023-04-16T00:38:55.608Z,-2.01
2023-04-16T00:41:26.893Z,-2.42
2023-04-16T00:43:53.673Z,-2.30
2023-04-16T00:46:23.223Z,-2.15
2023-04-16T00:48:51.613Z,-2.36
2023-04-16T00:51:19.279Z,-2.40
2023-04-16T00:53:46.577Z,-2.30
2023-04-16T00:56:14.005Z,-2.13
2023-04-16T00:58:41.972Z,-2.26
2023-04-16T01:01:08.729Z,-2.39
2023-04-16T01:03:41.101Z,-2.27
2023-04-16T01:06:08.585Z,-2.49
2023-04-16T01:08:36.123Z,-2.71
2023-04-16T01:11:03.729Z,-2.58
2023-04-16T01:13:30.751Z,-2.45
2023-04-16T01:15:57.569Z,-2.99
2023-04-16T01:18:26.078Z,-2.98
2023-04-16T01:20:52.869Z,-2.74
2023-04-16T01:23:19.677Z,-2.71
2023-04-16T01:25:47.272Z,-2.99
2023-04-16T01:28:14.102Z,-2.89
2023-04-16T01:30:41.513Z,-2.77
2023-04-16T01:33:12.243Z,-2.99
2023-04-16T01:35:40.943Z,-3.14
2023-04-16T01:38:09.076Z,-2.86
2023-04-16T01:40:36.615Z,-2.63
2023-04-16T01:43:03.750Z,-2.57
2023-04-16T01:45:34.318Z,-2.59
2023-04-16T01:48:01.270Z,-2.89
2023-04-16T01:50:29.733Z,-2.87
2023-04-16T01:52:56.438Z,-2.81
2023-04-16T01:55:23.201Z,-3.31
2023-04-16T01:57:51.218Z,-3.14
2023-04-16T02:00:17.872Z,-3.16
2023-04-16T02:02:44.700Z,-3.21
2023-04-16T02:05:11.393Z,-3.00
2023-04-16T02:07:38.488Z,-2.83
2023-04-16T02:10:07.235Z,-3.13
2023-04-16T02:12:33.853Z,-3.28
2023-04-16T02:15:00.556Z,-3.27
2023-04-16T02:17:27.267Z,-3.19
2023-04-16T02:19:54.061Z,-3.40
2023-04-16T02:22:20.818Z,-3.41
2023-04-16T02:24:47.599Z,-3.25
2023-04-16T02:27:14.181Z,-3.20
2023-04-16T02:29:41.124Z,-3.20
2023-04-16T02:32:07.799Z,-3.23
2023-04-16T02:34:36.113Z,-2.94
2023-04-16T02:37:02.750Z,-3.35
2023-04-16T02:39:29.430Z,-3.28
2023-04-16T02:41:56.278Z,-3.20
2023-04-16T02:44:23.091Z,-3.09
2023-04-16T02:46:49.875Z,-3.16
2023-04-16T02:49:17.967Z,-3.36
2023-04-16T02:51:45.873Z,-3.11
2023-04-16T02:54:12.502Z,-3.21
2023-04-16T02:56:39.137Z,-3.48
2023-04-16T02:59:06.097Z,-3.34
2023-04-16T03:01:32.785Z,-3.23
2023-04-16T03:03:59.996Z,-3.21
2023-04-16T03:06:29.233Z,-3.34
2023-04-16T03:08:55.848Z,-3.60
2023-04-16T03:11:22.633Z,-3.43
2023-04-16T03:13:49.653Z,-3.52
2023-04-16T03:16:16.443Z,-3.57
2023-04-16T03:18:43.158Z,-3.45
2023-04-16T03:21:09.775Z,-3.32
2023-04-16T03:23:37.785Z,-3.29
2023-04-16T03:26:04.514Z,-3.45
2023-04-16T03:28:32.328Z,-3.62
2023-04-16T03:30:58.956Z,-3.42
2023-04-16T03:33:26.268Z,-3.36
2023-04-16T03:35:57.241Z,-3.52
2023-04-16T03:38:25.921Z,-3.43
2023-04-16T03:40:52.511Z,-3.31
2023-04-16T03:43:19.134Z,-3.57
2023-04-16T03:45:47.608Z,-3.59
2023-04-16T03:48:14.516Z,-3.57
2023-04-16T03:50:45.559Z,-3.44
2023-04-16T03:53:13.462Z,-3.65
2023-04-16T03:55:41.020Z,-3.73
2023-04-16T03:58:07.675Z,-3.71
2023-04-16T04:00:35.751Z,-3.45
2023-04-16T04:03:02.709Z,-3.45
2023-04-16T04:05:29.533Z,-3.47
2023-04-16T04:07:56.532Z,-3.37
2023-04-16T04:10:23.695Z,-3.30
2023-04-16T04:12:50.312Z,-3.56
2023-04-16T04:15:17.004Z,-3.54
2023-04-16T04:17:43.796Z,-3.54
2023-04-16T04:20:11.126Z,-3.37
2023-04-16T04:22:37.769Z,-3.24
2023-04-16T04:25:05.686Z,-3.27
2023-04-16T04:27:32.280Z,-3.31
2023-04-16T04:30:00.272Z,-3.19
2023-04-16T04:32:26.931Z,-3.20
2023-04-16T04:34:54.693Z,-3.15
2023-04-16T04:37:21.388Z,-3.00
2023-04-16T04:39:49.147Z,-3.05
2023-04-16T04:42:19.050Z,-3.18
2023-04-16T04:44:46.234Z,-3.13
2023-04-16T04:47:13.597Z,-2.91
2023-04-16T04:49:40.446Z,-2.79
2023-04-16T04:52:07.170Z,-2.90
2023-04-16T04:54:33.974Z,-2.79
2023-04-16T04:57:01.377Z,-2.70
2023-04-16T04:59:28.465Z,-2.64
2023-04-16T05:01:55.522Z,-2.68
2023-04-16T05:04:22.235Z,-2.73
2023-04-16T05:06:50.195Z,-2.51
2023-04-16T05:09:17.508Z,-2.40
2023-04-16T05:11:45.519Z,-2.41
2023-04-16T05:14:12.174Z,-2.49
2023-04-16T05:16:38.897Z,-2.50
2023-04-16T05:19:05.605Z,-2.29
2023-04-16T05:21:32.400Z,-2.39
2023-04-16T05:24:00.510Z,-2.32
2023-04-16T05:26:27.095Z,-2.17
2023-04-16T05:28:53.744Z,-2.00
2023-04-16T05:31:21.961Z,-2.00
2023-04-16T05:33:48.628Z,-1.97
2023-04-16T05:36:16.892Z,-1.84
2023-04-16T05:38:43.480Z,-1.69
2023-04-16T05:41:11.282Z,-1.70
2023-04-16T05:43:37.913Z,-1.65
2023-04-16T05:46:04.761Z,-1.49
2023-04-16T05:48:31.523Z,-1.43
2023-04-16T05:50:58.117Z,-1.46
2023-04-16T05:53:26.175Z,-1.45
2023-04-16T05:55:52.836Z,-1.28
2023-04-16T05:58:19.573Z,-1.31
2023-04-16T06:00:46.284Z,-1.28
2023-04-16T06:03:13.147Z,-1.20
2023-04-16T06:05:40.025Z,-0.98
2023-04-16T06:08:08.193Z,-1.00
2023-04-16T06:10:36.207Z,-0.95
2023-04-16T06:13:03.146Z,-0.78
2023-04-16T06:15:29.823Z,-0.60
2023-04-16T06:17:57.270Z,-0.62
2023-04-16T06:20:25.136Z,-0.53
2023-04-16T06:22:51.839Z,-0.28
2023-04-16T06:25:19.956Z,-0.27
2023-04-16T06:27:46.578Z,-0.21
2023-04-16T06:30:14.621Z,0.00
2023-04-16T06:32:42.530Z,0.15
2023-04-16T06:35:09.330Z,0.22
2023-04-16T06:37:36.979Z,0.42
2023-04-16T06:40:04.641Z,0.63
2023-04-16T06:42:31.351Z,0.59
2023-04-16T06:44:57.979Z,0.68
2023-04-16T06:47:24.764Z,0.99
2023-04-16T06:49:51.412Z,1.07
2023-04-16T06:52:19.539Z,0.99
2023-04-16T06:54:47.486Z,1.05
2023-04-16T06:57:14.189Z,1.31
2023-04-16T06:59:41.050Z,1.39
2023-04-16T07:02:10.258Z,1.51
2023-04-16T07:04:37.323Z,1.77
2023-04-16T07:07:05.422Z,1.88
2023-04-16T07:09:32.434Z,2.04
2023-04-16T07:12:00.241Z,2.33
2023-04-16T07:14:26.872Z,2.39
2023-04-16T07:16:53.522Z,2.43
2023-04-16T07:19:20.412Z,2.62
2023-04-16T07:21:47.087Z,2.77
2023-04-16T07:24:13.961Z,2.84
2023-04-16T07:26:40.675Z,3.02
2023-04-16T07:29:07.384Z,3.20
2023-04-16T07:31:34.194Z,3.12
2023-04-16T07:34:00.866Z,3.18
2023-04-16T07:36:29.631Z,3.57
2023-04-16T07:38:56.380Z,3.63
2023-04-16T07:41:23.145Z,3.67
2023-04-16T07:43:49.850Z,3.89
2023-04-16T07:46:16.497Z,3.91
2023-04-16T07:48:43.252Z,4.08
2023-04-16T07:51:11.287Z,4.30
2023-04-16T07:53:38.042Z,4.27
2023-04-16T07:56:04.834Z,4.42
2023-04-16T07:58:31.453Z,4.53
2023-04-16T08:00:58.709Z,4.54
2023-04-16T08:03:25.838Z,4.85
2023-04-16T08:05:52.711Z,4.89
2023-04-16T08:08:19.916Z,4.96
2023-04-16T08:10:46.641Z,5.35
2023-04-16T08:13:14.690Z,5.43
2023-04-16T08:15:41.559Z,5.63
2023-04-16T08:18:12.855Z,5.84
2023-04-16T08:20:39.730Z,5.92
2023-04-16T08:23:06.400Z,6.14
2023-04-16T08:25:34.069Z,5.83
2023-04-16T08:28:00.762Z,5.92
2023-04-16T08:30:27.465Z,6.12
2023-04-16T08:32:54.391Z,6.34
2023-04-16T08:35:21.395Z,6.56
2023-04-16T08:37:49.189Z,6.54
2023-04-16T08:40:16.158Z,6.69
2023-04-16T08:42:53.099Z,6.83
2023-04-16T08:45:19.860Z,6.65
2023-04-16T08:47:48.681Z,6.86
2023-04-16T08:50:24.165Z,6.70
2023-04-16T08:52:53.220Z,6.90
2023-04-16T08:55:27.913Z,7.18
2023-04-16T08:57:58.622Z,7.05
2023-04-16T09:00:26.698Z,7.27
2023-04-16T09:02:54.197Z,7.34
2023-04-16T09:05:25.669Z,7.39
2023-04-16T09:07:56.943Z,7.55
2023-04-16T09:10:25.433Z,7.53
2023-04-16T09:12:53.546Z,7.76
2023-04-16T09:15:22.229Z,7.76
2023-04-16T09:17:50.039Z,7.98
2023-04-16T09:20:16.677Z,8.15
2023-04-16T09:22:43.660Z,8.03
2023-04-16T09:25:12.664Z,8.20
2023-04-16T09:27:39.709Z,8.11
2023-04-16T09:30:26.985Z,8.15
2023-04-16T09:33:23.427Z,8.12
2023-04-16T09:35:54.230Z,8.16
2023-04-16T09:38:21.356Z,8.42
2023-04-16T09:40:48.235Z,8.28
2023-04-16T09:43:18.719Z,8.54
2023-04-16T09:45:55.525Z,8.42
2023-04-16T09:48:30.129Z,8.45
2023-04-16T09:50:56.937Z,8.58
2023-04-16T09:53:27.254Z,8.58
2023-04-16T09:55:58.129Z,8.85
2023-04-16T09:58:27.378Z,8.58
2023-04-16T10:01:01.895Z,8.49
2023-04-16T10:03:32.141Z,8.68
2023-04-16T10:06:08.890Z,8.72
2023-04-16T10:08:36.468Z,8.91
2023-04-16T10:11:03.373Z,8.85
2023-04-16T10:13:31.240Z,8.87
2023-04-16T10:16:00.137Z,9.08
2023-04-16T10:18:27.700Z,9.00
2023-04-16T10:20:55.132Z,9.21
2023-04-16T10:23:22.802Z,8.95
2023-04-16T10:25:50.536Z,9.04
2023-04-16T10:28:18.725Z,9.21
2023-04-16T10:30:52.918Z,8.98
2023-04-16T10:33:25.733Z,9.22
2023-04-16T10:36:04.960Z,9.47
2023-04-16T10:38:33.631Z,9.37
2023-04-16T10:41:04.605Z,9.45
2023-04-16T10:43:33.209Z,9.50
2023-04-16T10:46:21.794Z,9.65
2023-04-16T10:48:50.795Z,9.47
2023-04-16T10:51:33.365Z,9.56
2023-04-16T10:54:12.539Z,9.51
2023-04-16T10:56:40.345Z,9.58
2023-04-16T10:59:11.749Z,9.57
2023-04-16T11:01:43.015Z,9.68
2023-04-16T11:04:22.307Z,9.87
2023-04-16T11:07:13.847Z,9.68
2023-04-16T11:09:52.423Z,9.93
2023-04-16T11:12:33.913Z,9.97
2023-04-16T11:15:02.149Z,10.21
2023-04-16T11:17:32.515Z,10.03
2023-04-16T11:19:59.494Z,10.00
2023-04-16T11:22:27.020Z,10.35
2023-04-16T11:24:57.477Z,10.27
2023-04-16T11:27:25.892Z,10.56
2023-04-16T11:30:04.372Z,10.28
2023-04-16T11:32:35.246Z,10.45
2023-04-16T11:35:03.834Z,10.76
2023-04-16T11:37:37.882Z,10.91
2023-04-16T11:40:09.647Z,10.91
2023-04-16T11:42:39.073Z,10.38
2023-04-16T11:45:06.822Z,10.53
2023-04-16T11:47:45.587Z,10.52
2023-04-16T11:50:19.223Z,10.63
2023-04-16T11:52:46.424Z,10.59
2023-04-16T11:55:13.232Z,10.33
2023-04-16T11:57:39.920Z,10.66
2023-04-16T12:00:10.692Z,10.82
2023-04-16T12:02:40.553Z,10.83
2023-04-16T12:05:36.076Z,10.78
2023-04-16T12:08:03.902Z,10.66
2023-04-16T12:10:38.448Z,10.87
2023-04-16T12:13:12.271Z,10.87
2023-04-16T12:15:54.099Z,11.03
2023-04-16T12:18:23.030Z,10.84
2023-04-16T12:20:53.619Z,11.03
2023-04-16T12:23:30.826Z,11.22
2023-04-16T12:26:02.672Z,11.38
2023-04-16T12:28:38.438Z,11.42
2023-04-16T12:31:06.102Z,10.97
2023-04-16T12:33:32.748Z,11.27
2023-04-16T12:35:59.545Z,11.38
2023-04-16T12:38:27.087Z,11.63
2023-04-16T12:40:57.113Z,11.66
2023-04-16T12:43:24.111Z,11.64
2023-04-16T12:45:50.788Z,11.79
2023-04-16T12:48:18.530Z,11.57
2023-04-16T12:50:45.219Z,11.75
2023-04-16T12:53:12.072Z,11.82
2023-04-16T12:55:38.820Z,11.87
2023-04-16T12:58:05.779Z,12.04
2023-04-16T13:00:32.816Z,12.07
2023-04-16T13:02:59.640Z,11.98
2023-04-16T13:05:26.654Z,12.08
2023-04-16T13:07:54.249Z,11.95
2023-04-16T13:10:22.224Z,12.00
2023-04-16T13:12:49.181Z,11.95
2023-04-16T13:15:16.185Z,12.25
2023-04-16T13:17:42.904Z,12.40
2023-04-16T13:20:10.283Z,12.47
2023-04-16T13:22:37.067Z,12.54
2023-04-16T13:25:05.209Z,12.51
2023-04-16T13:27:32.597Z,12.61
2023-04-16T13:29:59.306Z,12.26
2023-04-16T13:32:26.043Z,12.07
2023-04-16T13:34:52.715Z,12.13
2023-04-16T13:37:19.333Z,12.03
2023-04-16T13:39:45.991Z,12.35
2023-04-16T13:42:12.589Z,12.62
2023-04-16T13:44:39.204Z,12.75
2023-04-16T13:47:06.276Z,12.89
2023-04-16T13:49:36.021Z,12.70
2023-04-16T13:52:03.184Z,12.85
2023-04-16T13:54:29.832Z,12.52
2023-04-16T13:56:56.792Z,12.47
2023-04-16T13:59:23.665Z,12.48
2023-04-16T14:01:51.112Z,12.46
2023-04-16T14:04:17.905Z,12.68
2023-04-16T14:06:44.576Z,12.71
2023-04-16T14:09:11.977Z,12.94
2023-04-16T14:11:38.698Z,12.95
2023-04-16T14:14:05.520Z,12.99
2023-04-16T14:16:32.217Z,13.20
2023-04-16T14:18:58.887Z,13.29
2023-04-16T14:21:27.064Z,13.40
2023-04-16T14:23:53.671Z,13.37
2023-04-16T14:26:20.751Z,13.43
2023-04-16T14:28:47.733Z,13.48
2023-04-16T14:31:14.857Z,13.47
2023-04-16T14:33:41.628Z,13.67
2023-04-16T14:36:08.347Z,13.89
2023-04-16T14:38:34.989Z,13.98
2023-04-16T14:41:01.813Z,13.93
2023-04-16T14:43:28.676Z,13.79
2023-04-16T14:45:57.131Z,14.23
2023-04-16T14:48:23.978Z,14.17
2023-04-16T14:50:50.880Z,14.28
2023-04-16T14:53:17.874Z,14.57
2023-04-16T14:55:44.606Z,14.38
2023-04-16T14:58:11.236Z,14.72
2023-04-16T15:00:39.018Z,14.32
2023-04-16T15:03:06.100Z,14.60
2023-04-16T15:05:32.906Z,14.66
2023-04-16T15:08:00.614Z,14.57
2023-04-16T15:10:27.592Z,14.92
2023-04-16T15:12:54.197Z,15.01
2023-04-16T15:15:22.265Z,15.08
2023-04-16T15:17:51.043Z,14.94
2023-04-16T15:20:19.348Z,14.45
2023-04-16T15:22:46.026Z,14.68
2023-04-16T15:25:12.758Z,14.68
2023-04-16T15:27:39.412Z,14.68
2023-04-16T15:30:07.339Z,14.57
2023-04-16T15:32:34.003Z,14.26
2023-04-16T15:35:04.144Z,14.49
2023-04-16T15:37:31.364Z,14.75
2023-04-16T15:39:59.410Z,14.88
2023-04-16T15:42:26.038Z,15.10
2023-04-16T15:44:52.732Z,14.78
2023-04-16T15:47:19.465Z,14.61
2023-04-16T15:49:46.102Z,14.51
2023-04-16T15:52:13.230Z,14.22
2023-04-16T15:54:39.928Z,14.28
2023-04-16T15:57:06.591Z,14.63
2023-04-16T15:59:34.401Z,14.62
2023-04-16T16:02:01.464Z,14.39
2023-04-16T16:04:28.416Z,14.70
2023-04-16T16:06:55.693Z,14.81
2023-04-16T16:09:26.492Z,14.59
2023-04-16T16:11:59.733Z,14.84
2023-04-16T16:14:26.991Z,15.02
2023-04-16T16:16:55.242Z,14.93
2023-04-16T16:19:21.865Z,14.84
2023-04-16T16:21:48.452Z,14.99
2023-04-16T16:24:15.806Z,14.98
2023-04-16T16:26:42.487Z,14.93
2023-04-16T16:29:09.444Z,14.34
2023-04-16T16:31:36.308Z,14.20
2023-04-16T16:34:02.979Z,14.25
2023-04-16T16:36:31.109Z,14.26
2023-04-16T16:38:57.992Z,14.22
2023-04-16T16:41:24.593Z,14.27
2023-04-16T16:43:52.494Z,14.32
2023-04-16T16:46:19.087Z,14.27
2023-04-16T16:48:47.833Z,14.12
2023-04-16T16:51:18.724Z,13.96
2023-04-16T16:53:46.561Z,13.63
2023-04-16T16:56:13.190Z,13.10
2023-04-16T16:58:39.812Z,12.56
2023-04-16T17:01:06.590Z,12.34
2023-04-16T17:03:34.532Z,12.20
2023-04-16T17:06:01.342Z,12.10
2023-04-16T17:08:29.073Z,11.67
2023-04-16T17:10:55.846Z,11.63
2023-04-16T17:13:23.697Z,11.60
2023-04-16T17:15:50.538Z,11.29
2023-04-16T17:18:18.818Z,11.33
2023-04-16T17:20:45.499Z,11.38
2023-04-16T17:23:12.139Z,11.03
2023-04-16T17:25:38.774Z,10.87
2023-04-16T17:28:06.699Z,10.71
2023-04-16T17:30:33.404Z,9.91
2023-04-16T17:33:01.338Z,9.98
2023-04-16T17:35:28.034Z,9.57
2023-04-16T17:37:54.662Z,9.12
2023-04-16T17:40:21.249Z,9.26
2023-04-16T17:42:48.969Z,8.98
2023-04-16T17:45:16.088Z,8.84
2023-04-16T17:47:45.433Z,8.93
2023-04-16T17:50:12.254Z,8.50
2023-04-16T17:52:38.926Z,8.61
2023-04-16T17:55:06.651Z,8.24
2023-04-16T17:57:33.779Z,8.07
2023-04-16T18:00:01.652Z,8.08
2023-04-16T18:02:28.423Z,7.59
2023-04-16T18:04:55.242Z,7.76
2023-04-16T18:07:22.446Z,7.41
2023-04-16T18:09:49.583Z,7.23
2023-04-16T18:12:17.788Z,7.29
2023-04-16T18:14:46.089Z,6.82
2023-04-16T18:17:13.094Z,6.95
2023-04-16T18:19:41.132Z,6.88
2023-04-16T18:22:07.828Z,6.57
2023-04-16T18:24:36.427Z,6.67
2023-04-16T18:27:03.816Z,6.44
2023-04-16T18:29:33.893Z,6.34
2023-04-16T18:32:03.697Z,6.51
2023-04-16T18:34:31.611Z,6.01
2023-04-16T18:36:58.231Z,5.97
2023-04-16T18:39:24.986Z,6.03
2023-04-16T18:41:52.089Z,5.62
2023-04-16T18:44:21.113Z,5.64
2023-04-16T18:46:48.484Z,5.55
2023-04-16T18:49:17.170Z,5.28
2023-04-16T18:51:43.974Z,5.26
2023-04-16T18:54:12.323Z,5.22
2023-04-16T18:56:39.024Z,4.93
2023-04-16T18:59:05.630Z,5.02
2023-04-16T19:01:32.277Z,4.90
2023-04-16T19:03:58.965Z,4.71
2023-04-16T19:06:27.600Z,4.79
2023-04-16T19:08:54.269Z,4.74
2023-04-16T19:11:20.932Z,4.48
2023-04-16T19:13:47.657Z,4.60
2023-04-16T19:16:14.769Z,4.59
2023-04-16T19:18:42.757Z,4.22
2023-04-16T19:21:10.947Z,4.39
2023-04-16T19:23:39.056Z,4.11
2023-04-16T19:26:05.757Z,3.85
2023-04-16T19:28:32.361Z,4.07
2023-04-16T19:30:59.022Z,3.84
2023-04-16T19:33:25.774Z,3.67
2023-04-16T19:35:52.614Z,3.71
2023-04-16T19:38:19.229Z,3.31
2023-04-16T19:40:47.915Z,3.36
2023-04-16T19:43:15.061Z,3.33
2023-04-16T19:45:58.142Z,3.07
2023-04-16T19:48:26.158Z,3.16
2023-04-16T19:50:54.159Z,2.98
2023-04-16T19:53:21.458Z,2.69
2023-04-16T19:55:48.061Z,2.86
2023-04-16T19:58:14.776Z,2.70
2023-04-16T20:00:42.085Z,2.38
2023-04-16T20:03:09.380Z,2.53
2023-04-16T20:05:36.082Z,2.30
2023-04-16T20:08:04.274Z,2.10
2023-04-16T20:10:31.730Z,2.20
2023-04-16T20:12:58.565Z,2.09
2023-04-16T20:15:25.177Z,2.03
2023-04-16T20:17:52.463Z,2.28
2023-04-16T20:20:20.391Z,1.83
2023-04-16T20:22:48.146Z,1.28
2023-04-16T20:25:18.856Z,1.35
2023-04-16T20:27:45.537Z,1.32
2023-04-16T20:30:12.902Z,1.15
2023-04-16T20:32:39.559Z,1.14
2023-04-16T20:35:10.411Z,1.09
2023-04-16T20:37:43.324Z,0.84
2023-04-16T20:40:11.995Z,0.53
2023-04-16T20:42:39.933Z,0.76
2023-04-16T20:45:08.956Z,0.66
2023-04-16T20:47:35.641Z,0.80
2023-04-16T20:50:04.123Z,0.84
2023-04-16T20:52:30.769Z,0.48
2023-04-16T20:54:57.875Z,0.36
2023-04-16T20:57:24.531Z,0.56
2023-04-16T20:59:51.446Z,0.38
2023-04-16T21:02:18.380Z,0.43
2023-04-16T21:04:45.581Z,0.64
2023-04-16T21:07:13.423Z,0.49
2023-04-16T21:09:44.261Z,0.39
2023-04-16T21:12:12.153Z,0.42
2023-04-16T21:14:38.754Z,0.26
2023-04-16T21:17:06.637Z,0.28
2023-04-16T21:19:33.242Z,0.19
2023-04-16T21:22:01.153Z,-0.19
2023-04-16T21:24:27.852Z,-0.11
2023-04-16T21:26:54.536Z,-0.06
2023-04-16T21:29:21.126Z,-0.24
2023-04-16T21:31:47.823Z,-0.13
2023-04-16T21:34:14.816Z,-0.08
2023-04-16T21:36:42.691Z,-0.42
2023-04-16T21:39:09.521Z,-0.30
2023-04-16T21:41:36.311Z,-0.16
2023-04-16T21:44:02.985Z,-0.19
2023-04-16T21:46:29.739Z,-0.07
2023-04-16T21:48:56.407Z,-0.11
2023-04-16T21:51:30.175Z,-0.18
2023-04-16T21:53:58.638Z,-0.09
2023-04-16T21:56:25.877Z,-0.29
2023-04-16T21:58:52.579Z,-0.65
2023-04-16T22:01:19.392Z,-0.44
2023-04-16T22:03:50.585Z,-0.58
2023-04-16T22:06:18.807Z,-0.80
2023-04-16T22:08:46.288Z,-0.51
2023-04-16T22:11:12.919Z,-0.69
2023-04-16T22:13:43.410Z,-1.07
2023-04-16T22:16:11.701Z,-0.88
2023-04-16T22:18:38.803Z,-0.95
2023-04-16T22:21:05.567Z,-1.22
2023-04-16T22:23:32.337Z,-1.01
2023-04-16T22:25:59.001Z,-1.02
2023-04-16T22:28:25.756Z,-1.20
2023-04-16T22:30:52.418Z,-0.99
2023-04-16T22:33:19.037Z,-0.90
2023-04-16T22:35:46.170Z,-0.97
2023-04-16T22:38:14.486Z,-0.77
2023-04-16T22:40:41.155Z,-0.66
2023-04-16T22:43:09.004Z,-0.66
2023-04-16T22:45:35.728Z,-0.52
2023-04-16T22:48:02.853Z,-0.69
2023-04-16T22:50:31.294Z,-1.08
2023-04-16T22:52:58.198Z,-1.14
2023-04-16T22:55:24.810Z,-0.97
2023-04-16T22:57:51.400Z,-1.01
2023-04-16T23:00:19.417Z,-1.22
2023-04-16T23:02:46.146Z,-1.06
2023-04-16T23:05:12.942Z,-1.27
2023-04-16T23:07:39.996Z,-1.20
2023-04-16T23:10:08.651Z,-1.03
2023-04-16T23:12:38.703Z,-1.34
2023-04-16T23:15:06.967Z,-1.46
2023-04-16T23:17:33.952Z,-1.30
2023-04-16T23:20:00.908Z,-1.38
2023-04-16T23:22:27.770Z,-1.45
2023-04-16T23:24:54.455Z,-1.26
2023-04-16T23:27:21.171Z,-1.28
2023-04-16T23:29:47.810Z,-1.48
2023-04-16T23:32:14.628Z,-1.36
2023-04-16T23:34:43.266Z,-1.21
2023-04-16T23:37:10.015Z,-1.24
2023-04-16T23:39:36.690Z,-1.19
2023-04-16T23:42:03.504Z,-1.10
2023-04-16T23:44:30.663Z,-1.23
2023-04-16T23:46:57.400Z,-1.22
2023-04-16T23:49:25.535Z,-1.06
2023-04-16T23:51:52.207Z,-1.39
2023-04-16T23:54:20.268Z,-1.66
2023-04-16T23:56:47.056Z,-1.60
2023-04-16T23:59:14.081Z,-1.55
